^^
Station Historical Data
Daily Summary for January 31, 2021 Units:  English    Metric   Both
Daily Weekly Monthly Yearly
  High: Low: Average:
Temperature: 30.9 °F 24.5 °F 27.4 °F
Dew Point: 24.9 °F 18 °F 21.4 °F
Humidity: 83% 74% 78%
Wind Speed: 7mph 1mph 4.8mph
Wind Gust: 15mph - -
Wind- - ENE
Pressure: 30.23 in 30.06 in -
Precipitation: 0.00 in    
 
 
Tabular Data for January 31, 2021
Time Temperature Dew Point Pressure Wind Wind Speed Wind Gust Humidity Rainfall Rate (Hourly) solar
00:00 24.6 °F 19.9 °F 30.23 in East 1 mph 2 mph 82% 0.00 in 0 W/m2
00:05 24.5 °F 19.8 °F 30.22 in East 1 mph 2 mph 82% 0.00 in 0 W/m2
00:10 24.5 °F 19.8 °F 30.22 in East 1 mph 1 mph 82% 0.00 in 0 W/m2
00:15 24.5 °F 19.5 °F 30.22 in East 1 mph 2 mph 81% 0.00 in 0 W/m2
00:20 24.6 °F 19.3 °F 30.22 in East 1 mph 1 mph 80% 0.00 in 0 W/m2
00:25 24.9 °F 19.6 °F 30.22 in East 1 mph 1 mph 80% 0.00 in 0 W/m2
00:30 24.9 °F 19.3 °F 30.21 in ENE 1 mph 2 mph 79% 0.00 in 0 W/m2
00:35 25 °F 19.4 °F 30.21 in ESE 1 mph 2 mph 79% 0.00 in 0 W/m2
00:40 25.1 °F 19.5 °F 30.21 in ESE 1 mph 2 mph 79% 0.00 in 0 W/m2
00:45 25.1 °F 19.5 °F 30.20 in East 2 mph 2 mph 79% 0.00 in 0 W/m2
00:50 25.3 °F 19.7 °F 30.20 in NE 2 mph 2 mph 79% 0.00 in 0 W/m2
00:55 25.3 °F 19.7 °F 30.20 in East 2 mph 2 mph 79% 0.00 in 0 W/m2
01:00 25.5 °F 19.9 °F 30.20 in East 2 mph 2 mph 79% 0.00 in 0 W/m2
01:05 25.5 °F 19.9 °F 30.20 in East 3 mph 3 mph 79% 0.00 in 0 W/m2
01:10 25.6 °F 20 °F 30.20 in East 3 mph 3 mph 79% 0.00 in 0 W/m2
01:15 25.6 °F 20 °F 30.20 in ESE 2 mph 3 mph 79% 0.00 in 0 W/m2
01:20 25.7 °F 20.1 °F 30.20 in ESE 2 mph 3 mph 79% 0.00 in 0 W/m2
01:25 25.7 °F 20.1 °F 30.20 in East 3 mph 3 mph 79% 0.00 in 0 W/m2
01:30 25.8 °F 19.9 °F 30.20 in ENE 3 mph 3 mph 78% 0.00 in 0 W/m2
01:35 25.8 °F 20.2 °F 30.20 in East 3 mph 3 mph 79% 0.00 in 0 W/m2
01:40 25.8 °F 19.9 °F 30.19 in East 3 mph 3 mph 78% 0.00 in 0 W/m2
01:45 25.9 °F 20 °F 30.19 in ESE 2 mph 3 mph 78% 0.00 in 0 W/m2
01:50 25.9 °F 20 °F 30.20 in East 3 mph 3 mph 78% 0.00 in 0 W/m2
01:55 25.9 °F 20 °F 30.19 in East 3 mph 3 mph 78% 0.00 in 0 W/m2
02:00 26 °F 20.1 °F 30.19 in East 4 mph 4 mph 78% 0.00 in 0 W/m2
02:05 26 °F 20.1 °F 30.19 in East 4 mph 4 mph 78% 0.00 in 0 W/m2
02:10 26 °F 20.1 °F 30.19 in East 3 mph 3 mph 78% 0.00 in 0 W/m2
02:15 25.9 °F 20 °F 30.19 in East 3 mph 3 mph 78% 0.00 in 0 W/m2
02:20 25.9 °F 20 °F 30.18 in ESE 2 mph 2 mph 78% 0.00 in 0 W/m2
02:25 25.8 °F 19.9 °F 30.18 in East 2 mph 3 mph 78% 0.00 in 0 W/m2
02:30 25.9 °F 20 °F 30.18 in East 3 mph 3 mph 78% 0.00 in 0 W/m2
02:35 25.8 °F 19.9 °F 30.18 in East 3 mph 3 mph 78% 0.00 in 0 W/m2
02:40 25.8 °F 19.9 °F 30.18 in East 3 mph 3 mph 78% 0.00 in 0 W/m2
02:45 25.9 °F 20.3 °F 30.18 in East 3 mph 3 mph 79% 0.00 in 0 W/m2
02:50 26 °F 20.1 °F 30.17 in NE 3 mph 3 mph 78% 0.00 in 0 W/m2
02:55 25.9 °F 20 °F 30.17 in East 4 mph 4 mph 78% 0.00 in 0 W/m2
03:00 25.9 °F 20 °F 30.17 in East 4 mph 4 mph 78% 0.00 in 0 W/m2
03:05 26 °F 20.1 °F 30.17 in East 3 mph 4 mph 78% 0.00 in 0 W/m2
03:10 25.9 °F 20 °F 30.17 in East 3 mph 3 mph 78% 0.00 in 0 W/m2
03:15 25.9 °F 20 °F 30.16 in East 3 mph 3 mph 78% 0.00 in 0 W/m2
03:20 25.9 °F 20 °F 30.16 in East 3 mph 3 mph 78% 0.00 in 0 W/m2
03:25 26 °F 20.4 °F 30.16 in East 4 mph 4 mph 79% 0.00 in 0 W/m2
03:30 26 °F 20.1 °F 30.15 in East 4 mph 4 mph 78% 0.00 in 0 W/m2
03:35 26 °F 20.4 °F 30.15 in ENE 4 mph 4 mph 79% 0.00 in 0 W/m2
03:40 26 °F 20.4 °F 30.15 in East 4 mph 4 mph 79% 0.00 in 0 W/m2
03:45 26 °F 20.4 °F 30.15 in East 4 mph 7 mph 79% 0.00 in 0 W/m2
03:50 26 °F 20.1 °F 30.15 in SE 4 mph 7 mph 78% 0.00 in 0 W/m2
03:55 26.1 °F 20.5 °F 30.15 in ESE 5 mph 7 mph 79% 0.00 in 0 W/m2
04:00 26.1 °F 20.5 °F 30.14 in East 5 mph 5 mph 79% 0.00 in 0 W/m2
04:05 26.1 °F 20.2 °F 30.14 in ENE 4 mph 6 mph 78% 0.00 in 0 W/m2
04:10 26.1 °F 20.5 °F 30.14 in East 4 mph 5 mph 79% 0.00 in 0 W/m2
04:15 26.1 °F 20.5 °F 30.13 in ENE 5 mph 5 mph 79% 0.00 in 0 W/m2
04:20 26.1 °F 20.5 °F 30.13 in East 5 mph 5 mph 79% 0.00 in 0 W/m2
04:25 26.1 °F 20.5 °F 30.13 in NE 5 mph 5 mph 79% 0.00 in 0 W/m2
04:30 26.1 °F 20.8 °F 30.13 in East 6 mph 7 mph 80% 0.00 in 0 W/m2
04:35 26 °F 20.7 °F 30.12 in ENE 6 mph 7 mph 80% 0.00 in 0 W/m2
04:40 26 °F 20.7 °F 30.12 in ENE 5 mph 6 mph 80% 0.00 in 0 W/m2
04:45 26.1 °F 20.8 °F 30.11 in ENE 6 mph 6 mph 80% 0.00 in 0 W/m2
04:50 26.1 °F 20.8 °F 30.12 in ENE 6 mph 6 mph 80% 0.00 in 0 W/m2
04:55 26.1 °F 20.8 °F 30.13 in ESE 6 mph 6 mph 80% 0.00 in 0 W/m2
05:00 26.1 °F 20.8 °F 30.13 in East 6 mph 6 mph 80% 0.00 in 0 W/m2
05:05 26.1 °F 20.8 °F 30.14 in ESE 6 mph 7 mph 80% 0.00 in 0 W/m2
05:10 26.1 °F 20.5 °F 30.14 in ESE 5 mph 5 mph 79% 0.00 in 0 W/m2
05:15 26.1 °F 20.5 °F 30.14 in ESE 6 mph 6 mph 79% 0.00 in 0 W/m2
05:20 26.2 °F 20.6 °F 30.14 in East 5 mph 5 mph 79% 0.00 in 0 W/m2
05:25 26.1 °F 20.5 °F 30.14 in East 5 mph 5 mph 79% 0.00 in 0 W/m2
05:30 26.1 °F 20.5 °F 30.14 in East 5 mph 5 mph 79% 0.00 in 0 W/m2
05:35 26.2 °F 20.6 °F 30.14 in East 4 mph 5 mph 79% 0.00 in 0 W/m2
05:40 26.1 °F 20.5 °F 30.14 in East 4 mph 4 mph 79% 0.00 in 0 W/m2
05:45 26.1 °F 20.5 °F 30.15 in ESE 4 mph 4 mph 79% 0.00 in 0 W/m2
05:50 26.1 °F 20.5 °F 30.15 in East 3 mph 9 mph 79% 0.00 in 0 W/m2
05:55 26.1 °F 20.5 °F 30.15 in East 4 mph 9 mph 79% 0.00 in 0 W/m2
06:00 26 °F 20.4 °F 30.15 in ESE 5 mph 5 mph 79% 0.00 in 0 W/m2
06:05 26 °F 20.4 °F 30.14 in ESE 6 mph 7 mph 79% 0.00 in 0 W/m2
06:10 26 °F 20.4 °F 30.14 in ESE 6 mph 6 mph 79% 0.00 in 0 W/m2
06:15 26 °F 20.4 °F 30.14 in East 5 mph 6 mph 79% 0.00 in 0 W/m2
06:20 26 °F 20.4 °F 30.14 in ENE 4 mph 5 mph 79% 0.00 in 0 W/m2
06:25 25.9 °F 20.3 °F 30.14 in East 5 mph 5 mph 79% 0.00 in 0 W/m2
06:30 25.9 °F 20.3 °F 30.14 in ESE 5 mph 8 mph 79% 0.00 in 0 W/m2
06:35 25.8 °F 19.9 °F 30.13 in ESE 5 mph 8 mph 78% 0.00 in 0 W/m2
06:40 25.8 °F 20.2 °F 30.13 in ENE 5 mph 5 mph 79% 0.00 in 0 W/m2
06:45 25.8 °F 20.2 °F 30.13 in NE 6 mph 6 mph 79% 0.00 in 0 W/m2
06:50 25.7 °F 20.1 °F 30.13 in ESE 6 mph 6 mph 79% 0.00 in 0 W/m2
06:55 25.7 °F 20.1 °F 30.13 in East 5 mph 6 mph 79% 0.00 in 0 W/m2
07:00 25.6 °F 20 °F 30.13 in ENE 5 mph 5 mph 79% 0.00 in 0 W/m2
07:05 25.6 °F 20 °F 30.13 in East 4 mph 5 mph 79% 0.00 in 0 W/m2
07:10 25.6 °F 20.3 °F 30.13 in ENE 4 mph 4 mph 80% 0.00 in 0 W/m2
07:15 25.5 °F 20.2 °F 30.13 in East 4 mph 4 mph 80% 0.00 in 0 W/m2
07:20 25.5 °F 20.2 °F 30.13 in ENE 4 mph 6 mph 80% 0.00 in 0 W/m2
07:25 25.4 °F 20.1 °F 30.12 in ENE 5 mph 6 mph 80% 0.00 in 0 W/m2
07:30 25.4 °F 20.1 °F 30.12 in ESE 5 mph 5 mph 80% 0.00 in 0 W/m2
07:35 25.3 °F 20.3 °F 30.12 in ENE 4 mph 5 mph 81% 0.00 in 0 W/m2
07:40 25.3 °F 20.3 °F 30.12 in ENE 4 mph 4 mph 81% 0.00 in 0 W/m2
07:45 25.3 °F 20.3 °F 30.12 in ENE 4 mph 4 mph 81% 0.00 in 0 W/m2
07:50 25.2 °F 20.2 °F 30.12 in East 4 mph 4 mph 81% 0.00 in 0 W/m2
07:55 25.1 °F 20.1 °F 30.12 in NE 4 mph 4 mph 81% 0.00 in 0 W/m2
08:00 25 °F 20.3 °F 30.12 in East 5 mph 5 mph 82% 0.00 in 5 W/m2
08:05 25 °F 20.3 °F 30.12 in ENE 5 mph 5 mph 82% 0.00 in 9 W/m2
08:10 25 °F 20.3 °F 30.12 in ENE 4 mph 4 mph 82% 0.00 in 12 W/m2
08:15 25.1 °F 20.4 °F 30.12 in East 4 mph 4 mph 82% 0.00 in 18 W/m2
08:20 25 °F 20.3 °F 30.12 in ENE 4 mph 4 mph 82% 0.00 in 21 W/m2
08:25 25.1 °F 20.4 °F 30.12 in NE 4 mph 4 mph 82% 0.00 in 25 W/m2
08:30 25.1 °F 20.7 °F 30.12 in East 4 mph 4 mph 83% 0.00 in 28 W/m2
08:35 25.2 °F 20.8 °F 30.12 in SE 4 mph 7 mph 83% 0.00 in 32 W/m2
08:40 25.2 °F 20.8 °F 30.12 in ENE 4 mph 4 mph 83% 0.00 in 35 W/m2
08:45 25.3 °F 20.9 °F 30.12 in NE 4 mph 4 mph 83% 0.00 in 37 W/m2
08:50 25.4 °F 21 °F 30.12 in ESE 4 mph 4 mph 83% 0.00 in 39 W/m2
08:55 25.5 °F 21.1 °F 30.11 in NE 4 mph 5 mph 83% 0.00 in 46 W/m2
09:00 25.6 °F 21.2 °F 30.11 in ENE 3 mph 4 mph 83% 0.00 in 49 W/m2
09:05 25.7 °F 21 °F 30.11 in ENE 4 mph 7 mph 82% 0.00 in 53 W/m2
09:10 25.8 °F 21.1 °F 30.11 in East 4 mph 4 mph 82% 0.00 in 56 W/m2
09:15 25.9 °F 21.2 °F 30.11 in ENE 4 mph 4 mph 82% 0.00 in 62 W/m2
09:20 26 °F 21.3 °F 30.11 in East 4 mph 4 mph 82% 0.00 in 63 W/m2
09:25 26.1 °F 21.1 °F 30.11 in ENE 5 mph 5 mph 81% 0.00 in 69 W/m2
09:30 26.3 °F 21.3 °F 30.11 in East 5 mph 5 mph 81% 0.00 in 72 W/m2
09:35 26.4 °F 21.1 °F 30.11 in ENE 4 mph 5 mph 80% 0.00 in 77 W/m2
09:40 26.5 °F 21.2 °F 30.11 in NE 4 mph 4 mph 80% 0.00 in 88 W/m2
09:45 26.6 °F 21.3 °F 30.11 in ENE 4 mph 4 mph 80% 0.00 in 93 W/m2
09:50 26.8 °F 21.5 °F 30.11 in ENE 4 mph 5 mph 80% 0.00 in 97 W/m2
09:55 27 °F 21.7 °F 30.11 in ENE 4 mph 5 mph 80% 0.00 in 102 W/m2
10:00 27.1 °F 21.5 °F 30.11 in SE 4 mph 9 mph 79% 0.00 in 111 W/m2
10:05 27.2 °F 21.5 °F 30.11 in East 5 mph 9 mph 79% 0.00 in 123 W/m2
10:10 27.4 °F 21.7 °F 30.11 in ENE 5 mph 5 mph 79% 0.00 in 135 W/m2
10:15 27.6 °F 21.6 °F 30.11 in ENE 4 mph 5 mph 78% 0.00 in 144 W/m2
10:20 27.8 °F 21.8 °F 30.11 in East 5 mph 5 mph 78% 0.00 in 162 W/m2
10:25 27.9 °F 21.9 °F 30.11 in East 5 mph 8 mph 78% 0.00 in 174 W/m2
10:30 28.1 °F 22.1 °F 30.10 in East 5 mph 6 mph 78% 0.00 in 176 W/m2
10:35 28.3 °F 22.3 °F 30.10 in NE 5 mph 6 mph 78% 0.00 in 181 W/m2
10:40 28.4 °F 22.4 °F 30.10 in ESE 5 mph 8 mph 78% 0.00 in 183 W/m2
10:45 28.4 °F 22.1 °F 30.11 in NE 6 mph 8 mph 77% 0.00 in 179 W/m2
10:50 28.6 °F 22.3 °F 30.11 in ENE 5 mph 5 mph 77% 0.00 in 174 W/m2
10:55 28.7 °F 22.4 °F 30.10 in NE 4 mph 5 mph 77% 0.00 in 176 W/m2
11:00 28.7 °F 22.7 °F 30.11 in East 4 mph 6 mph 78% 0.00 in 178 W/m2
11:05 28.7 °F 22.7 °F 30.10 in ENE 5 mph 6 mph 78% 0.00 in 181 W/m2
11:10 28.9 °F 22.6 °F 30.10 in NE 5 mph 5 mph 77% 0.00 in 190 W/m2
11:15 29 °F 23 °F 30.10 in ENE 5 mph 5 mph 78% 0.00 in 195 W/m2
11:20 28.9 °F 22.6 °F 30.10 in ESE 5 mph 5 mph 77% 0.00 in 202 W/m2
11:25 29.1 °F 22.5 °F 30.10 in East 6 mph 7 mph 76% 0.00 in 227 W/m2
11:30 29.2 °F 22.3 °F 30.10 in East 7 mph 7 mph 75% 0.00 in 255 W/m2
11:35 29.5 °F 22.6 °F 30.10 in ENE 7 mph 8 mph 75% 0.00 in 253 W/m2
11:40 29.5 °F 22.6 °F 30.10 in East 7 mph 7 mph 75% 0.00 in 243 W/m2
11:45 29.7 °F 22.7 °F 30.10 in East 6 mph 7 mph 75% 0.00 in 234 W/m2
11:50 29.7 °F 22.7 °F 30.10 in NE 5 mph 5 mph 75% 0.00 in 234 W/m2
11:55 29.8 °F 22.5 °F 30.10 in East 5 mph 7 mph 74% 0.00 in 236 W/m2
12:00 29.9 °F 22.9 °F 30.10 in ENE 5 mph 5 mph 75% 0.00 in 239 W/m2
12:05 30.1 °F 23.1 °F 30.10 in East 5 mph 7 mph 75% 0.00 in 250 W/m2
12:10 30 °F 23 °F 30.10 in ESE 5 mph 6 mph 75% 0.00 in 260 W/m2
12:15 30 °F 23 °F 30.10 in East 6 mph 6 mph 75% 0.00 in 267 W/m2
12:20 30.3 °F 23.3 °F 30.09 in ESE 5 mph 9 mph 75% 0.00 in 276 W/m2
12:25 30.6 °F 23.6 °F 30.10 in ENE 4 mph 9 mph 75% 0.00 in 272 W/m2
12:30 30.6 °F 23.6 °F 30.09 in ENE 4 mph 4 mph 75% 0.00 in 274 W/m2
12:35 30.6 °F 23.9 °F 30.09 in East 5 mph 5 mph 76% 0.00 in 276 W/m2
12:40 30.7 °F 24 °F 30.09 in East 5 mph 5 mph 76% 0.00 in 278 W/m2
12:45 30.9 °F 24.2 °F 30.09 in ENE 4 mph 5 mph 76% 0.00 in 301 W/m2
12:50 30.8 °F 24.7 °F 30.08 in North 4 mph 8 mph 78% 0.00 in 316 W/m2
12:55 30.6 °F 24.9 °F 30.08 in ENE 5 mph 8 mph 79% 0.00 in 330 W/m2
13:00 30.3 °F 24.6 °F 30.08 in NE 5 mph 5 mph 79% 0.00 in 316 W/m2
13:05 30.4 °F 24.7 °F 30.08 in NNE 6 mph 9 mph 79% 0.00 in 322 W/m2
13:10 30.3 °F 24.3 °F 30.08 in ENE 5 mph 5 mph 78% 0.00 in 341 W/m2
13:15 30.4 °F 24.7 °F 30.08 in ENE 6 mph 7 mph 79% 0.00 in 339 W/m2
13:20 30.1 °F 24.1 °F 30.07 in NE 6 mph 6 mph 78% 0.00 in 338 W/m2
13:25 30.3 °F 24.3 °F 30.07 in ENE 6 mph 8 mph 78% 0.00 in 318 W/m2
13:30 30.2 °F 23.9 °F 30.07 in ENE 6 mph 8 mph 77% 0.00 in 272 W/m2
13:35 30.1 °F 23.8 °F 30.07 in ENE 6 mph 10 mph 77% 0.00 in 264 W/m2
13:40 29.9 °F 23.9 °F 30.07 in NE 6 mph 6 mph 78% 0.00 in 236 W/m2
13:45 29.9 °F 24.2 °F 30.07 in ENE 6 mph 6 mph 79% 0.00 in 323 W/m2
13:50 30.2 °F 24.5 °F 30.07 in NE 5 mph 7 mph 79% 0.00 in 323 W/m2
13:55 30.2 °F 24.2 °F 30.07 in East 6 mph 7 mph 78% 0.00 in 255 W/m2
14:00 29.9 °F 24.2 °F 30.07 in ENE 7 mph 10 mph 79% 0.00 in 257 W/m2
14:05 29.9 °F 24.2 °F 30.07 in NE 7 mph 10 mph 79% 0.00 in 403 W/m2
14:10 30 °F 24.3 °F 30.07 in North 7 mph 9 mph 79% 0.00 in 302 W/m2
14:15 30.1 °F 24.1 °F 30.07 in East 7 mph 9 mph 78% 0.00 in 374 W/m2
14:20 30.3 °F 24.3 °F 30.07 in NE 7 mph 7 mph 78% 0.00 in 320 W/m2
14:25 30.7 °F 24.7 °F 30.06 in East 6 mph 15 mph 78% 0.00 in 404 W/m2
14:30 30.6 °F 24.6 °F 30.06 in ENE 6 mph 6 mph 78% 0.00 in 338 W/m2
14:35 30.5 °F 24.5 °F 30.07 in East 7 mph 7 mph 78% 0.00 in 276 W/m2
14:40 30.4 °F 24.4 °F 30.07 in NE 6 mph 6 mph 78% 0.00 in 353 W/m2
14:45 30.4 °F 24.4 °F 30.07 in NNE 6 mph 6 mph 78% 0.00 in 237 W/m2
14:50 30.5 °F 24.1 °F 30.06 in NE 6 mph 6 mph 77% 0.00 in 350 W/m2
14:55 30.7 °F 24.3 °F 30.07 in NE 6 mph 6 mph 77% 0.00 in 237 W/m2
15:00 30.5 °F 24.5 °F 30.07 in NE 6 mph 6 mph 78% 0.00 in 378 W/m2
15:05 30.6 °F 24.2 °F 30.07 in East 6 mph 9 mph 77% 0.00 in 171 W/m2
15:10 30.4 °F 24.4 °F 30.07 in East 6 mph 8 mph 78% 0.00 in 302 W/m2
15:15 30.4 °F 24.1 °F 30.07 in NE 7 mph 11 mph 77% 0.00 in 329 W/m2
15:20 30.3 °F 24 °F 30.07 in NNE 6 mph 6 mph 77% 0.00 in 234 W/m2
15:25 30.2 °F 23.9 °F 30.07 in ENE 5 mph 6 mph 77% 0.00 in 287 W/m2
15:30 30 °F 23.7 °F 30.07 in ENE 6 mph 6 mph 77% 0.00 in 144 W/m2
15:35 30 °F 23.7 °F 30.07 in NE 6 mph 6 mph 77% 0.00 in 195 W/m2
15:40 29.9 °F 23.6 °F 30.07 in NE 6 mph 6 mph 77% 0.00 in 160 W/m2
15:45 30.2 °F 23.9 °F 30.07 in East 6 mph 6 mph 77% 0.00 in 197 W/m2
15:50 30.2 °F 23.9 °F 30.07 in ENE 5 mph 5 mph 77% 0.00 in 214 W/m2
15:55 30 °F 23.7 °F 30.07 in NE 6 mph 6 mph 77% 0.00 in 246 W/m2
16:00 30.1 °F 24.1 °F 30.07 in ENE 6 mph 6 mph 78% 0.00 in 183 W/m2
16:05 30.4 °F 24.1 °F 30.07 in NE 5 mph 6 mph 77% 0.00 in 227 W/m2
16:10 30.2 °F 23.9 °F 30.07 in NNE 5 mph 8 mph 77% 0.00 in 165 W/m2
16:15 29.9 °F 23.6 °F 30.07 in ENE 5 mph 8 mph 77% 0.00 in 272 W/m2
16:20 29.9 °F 23.6 °F 30.07 in NNE 5 mph 5 mph 77% 0.00 in 127 W/m2
16:25 29.7 °F 23.7 °F 30.07 in NNE 5 mph 5 mph 78% 0.00 in 130 W/m2
16:30 29.7 °F 23.4 °F 30.07 in NE 5 mph 5 mph 77% 0.00 in 211 W/m2
16:35 29.6 °F 23 °F 30.07 in ENE 5 mph 11 mph 76% 0.00 in 130 W/m2
16:40 29.5 °F 23.2 °F 30.08 in East 5 mph 5 mph 77% 0.00 in 111 W/m2
16:45 29.3 °F 23 °F 30.08 in ENE 6 mph 6 mph 77% 0.00 in 70 W/m2
16:50 29.1 °F 22.8 °F 30.08 in ENE 6 mph 6 mph 77% 0.00 in 58 W/m2
16:55 29 °F 23 °F 30.08 in East 5 mph 6 mph 78% 0.00 in 51 W/m2
17:00 28.9 °F 22.6 °F 30.08 in NE 5 mph 6 mph 77% 0.00 in 47 W/m2
17:05 28.6 °F 22.3 °F 30.08 in ENE 5 mph 6 mph 77% 0.00 in 42 W/m2
17:10 28.5 °F 22.5 °F 30.08 in NE 5 mph 5 mph 78% 0.00 in 39 W/m2
17:15 28.5 °F 22.5 °F 30.08 in NE 5 mph 7 mph 78% 0.00 in 33 W/m2
17:20 28.5 °F 22.5 °F 30.08 in NE 5 mph 6 mph 78% 0.00 in 28 W/m2
17:25 28.3 °F 22.3 °F 30.08 in NE 5 mph 7 mph 78% 0.00 in 19 W/m2
17:30 28.3 °F 22.6 °F 30.08 in East 5 mph 7 mph 79% 0.00 in 14 W/m2
17:35 28.3 °F 22.3 °F 30.08 in ENE 5 mph 7 mph 78% 0.00 in 9 W/m2
17:40 28.3 °F 22.3 °F 30.08 in NNE 5 mph 5 mph 78% 0.00 in 5 W/m2
17:45 28.2 °F 22.2 °F 30.08 in NE 6 mph 6 mph 78% 0.00 in 0 W/m2
17:50 28.2 °F 22.5 °F 30.08 in ENE 6 mph 9 mph 79% 0.00 in 0 W/m2
17:55 28.1 °F 22.1 °F 30.08 in East 6 mph 11 mph 78% 0.00 in 0 W/m2
18:00 28.1 °F 22.1 °F 30.08 in NNE 6 mph 7 mph 78% 0.00 in 0 W/m2
18:05 28.1 °F 22.1 °F 30.08 in ENE 6 mph 7 mph 78% 0.00 in 0 W/m2
18:10 28.1 °F 21.8 °F 30.08 in ENE 6 mph 6 mph 77% 0.00 in 0 W/m2
18:15 28.1 °F 21.8 °F 30.08 in ENE 6 mph 8 mph 77% 0.00 in 0 W/m2
18:20 28.1 °F 22.1 °F 30.09 in NE 6 mph 6 mph 78% 0.00 in 0 W/m2
18:25 28.1 °F 22.1 °F 30.09 in NE 6 mph 6 mph 78% 0.00 in 0 W/m2
18:30 28.1 °F 21.8 °F 30.09 in ENE 6 mph 6 mph 77% 0.00 in 0 W/m2
18:35 28.1 °F 21.8 °F 30.09 in NE 6 mph 6 mph 77% 0.00 in 0 W/m2
18:40 28.2 °F 21.6 °F 30.09 in ENE 6 mph 6 mph 76% 0.00 in 0 W/m2
18:45 28.1 °F 21.8 °F 30.09 in NE 5 mph 6 mph 77% 0.00 in 0 W/m2
18:50 28.2 °F 22.2 °F 30.10 in ENE 5 mph 5 mph 78% 0.00 in 0 W/m2
18:55 28.3 °F 22 °F 30.09 in ENE 6 mph 6 mph 77% 0.00 in 0 W/m2
19:00 28.3 °F 22.3 °F 30.10 in NE 6 mph 6 mph 78% 0.00 in 0 W/m2
19:05 28.2 °F 22.2 °F 30.10 in ENE 6 mph 6 mph 78% 0.00 in 0 W/m2
19:10 28.2 °F 21.9 °F 30.10 in ENE 6 mph 9 mph 77% 0.00 in 0 W/m2
19:15 28.2 °F 21.9 °F 30.10 in NNE 6 mph 9 mph 77% 0.00 in 0 W/m2
19:20 28.1 °F 21.8 °F 30.10 in NNE 6 mph 6 mph 77% 0.00 in 0 W/m2
19:25 28.1 °F 21.8 °F 30.10 in ENE 6 mph 6 mph 77% 0.00 in 0 W/m2
19:30 27.9 °F 21.6 °F 30.10 in NE 6 mph 6 mph 77% 0.00 in 0 W/m2
19:35 27.9 °F 21.6 °F 30.10 in NE 6 mph 6 mph 77% 0.00 in 0 W/m2
19:40 27.8 °F 21.2 °F 30.10 in ENE 6 mph 6 mph 76% 0.00 in 0 W/m2
19:45 27.7 °F 21.1 °F 30.10 in ENE 6 mph 6 mph 76% 0.00 in 0 W/m2
19:50 27.6 °F 21.3 °F 30.10 in NE 5 mph 6 mph 77% 0.00 in 0 W/m2
19:55 27.6 °F 21 °F 30.10 in East 5 mph 7 mph 76% 0.00 in 0 W/m2
20:00 27.6 °F 21.3 °F 30.10 in NE 5 mph 9 mph 77% 0.00 in 0 W/m2
20:05 27.6 °F 21.3 °F 30.10 in East 5 mph 9 mph 77% 0.00 in 0 W/m2
20:10 27.6 °F 21.3 °F 30.10 in NE 6 mph 6 mph 77% 0.00 in 0 W/m2
20:15 27.6 °F 21 °F 30.10 in ENE 7 mph 7 mph 76% 0.00 in 0 W/m2
20:20 27.5 °F 20.9 °F 30.10 in NE 7 mph 7 mph 76% 0.00 in 0 W/m2
20:25 27.4 °F 20.8 °F 30.10 in NNE 6 mph 7 mph 76% 0.00 in 0 W/m2
20:30 27.4 °F 21.1 °F 30.10 in East 5 mph 5 mph 77% 0.00 in 0 W/m2
20:35 27.5 °F 21.2 °F 30.10 in ENE 6 mph 6 mph 77% 0.00 in 0 W/m2
20:40 27.5 °F 21.2 °F 30.10 in NE 6 mph 6 mph 77% 0.00 in 0 W/m2
20:45 27.4 °F 21.4 °F 30.10 in NE 6 mph 6 mph 78% 0.00 in 0 W/m2
20:50 27.4 °F 21.4 °F 30.10 in ENE 6 mph 10 mph 78% 0.00 in 0 W/m2
20:55 27.6 °F 21.9 °F 30.10 in ENE 6 mph 10 mph 79% 0.00 in 0 W/m2
21:00 27.5 °F 21.8 °F 30.10 in East 6 mph 6 mph 79% 0.00 in 0 W/m2
21:05 27.4 °F 21.4 °F 30.10 in ENE 6 mph 7 mph 78% 0.00 in 0 W/m2
21:10 27.5 °F 21.5 °F 30.10 in NE 7 mph 15 mph 78% 0.00 in 0 W/m2
21:15 27.5 °F 21.5 °F 30.10 in ENE 7 mph 15 mph 78% 0.00 in 0 W/m2
21:20 27.6 °F 21.6 °F 30.10 in NE 7 mph 7 mph 78% 0.00 in 0 W/m2
21:25 27.6 °F 21.6 °F 30.10 in East 7 mph 7 mph 78% 0.00 in 0 W/m2
21:30 27.6 °F 21.6 °F 30.10 in ENE 7 mph 11 mph 78% 0.00 in 0 W/m2
21:35 27.5 °F 21.2 °F 30.10 in NE 7 mph 11 mph 77% 0.00 in 0 W/m2
21:40 27.6 °F 21 °F 30.10 in ENE 7 mph 7 mph 76% 0.00 in 0 W/m2
21:45 27.6 °F 21 °F 30.10 in East 7 mph 7 mph 76% 0.00 in 0 W/m2
21:50 27.4 °F 20.8 °F 30.10 in NE 6 mph 6 mph 76% 0.00 in 0 W/m2
21:55 27.4 °F 20.8 °F 30.10 in ENE 5 mph 6 mph 76% 0.00 in 0 W/m2
22:00 27.3 °F 20.7 °F 30.10 in ENE 5 mph 9 mph 76% 0.00 in 0 W/m2
22:05 27.2 °F 20.3 °F 30.10 in ESE 5 mph 9 mph 75% 0.00 in 0 W/m2
22:10 27 °F 20.1 °F 30.10 in ENE 6 mph 6 mph 75% 0.00 in 0 W/m2
22:15 27 °F 20.1 °F 30.10 in ENE 6 mph 6 mph 75% 0.00 in 0 W/m2
22:20 26.9 °F 20 °F 30.10 in ENE 5 mph 5 mph 75% 0.00 in 0 W/m2
22:25 26.8 °F 19.9 °F 30.10 in ENE 4 mph 5 mph 75% 0.00 in 0 W/m2
22:30 26.7 °F 19.8 °F 30.10 in East 5 mph 5 mph 75% 0.00 in 0 W/m2
22:35 26.5 °F 19.6 °F 30.10 in East 5 mph 7 mph 75% 0.00 in 0 W/m2
22:40 26.4 °F 19.5 °F 30.10 in NE 5 mph 6 mph 75% 0.00 in 0 W/m2
22:45 26.3 °F 19.5 °F 30.10 in ENE 5 mph 6 mph 75% 0.00 in 0 W/m2
22:50 26.3 °F 19.5 °F 30.10 in NE 5 mph 5 mph 75% 0.00 in 0 W/m2
22:55 26.1 °F 19.3 °F 30.10 in East 5 mph 6 mph 75% 0.00 in 0 W/m2
23:00 26.1 °F 19.3 °F 30.10 in East 5 mph 5 mph 75% 0.00 in 0 W/m2
23:05 26 °F 18.8 °F 30.10 in ENE 5 mph 5 mph 74% 0.00 in 0 W/m2
23:10 25.9 °F 18.7 °F 30.10 in ENE 4 mph 5 mph 74% 0.00 in 0 W/m2
23:15 25.7 °F 18.9 °F 30.10 in NE 4 mph 5 mph 75% 0.00 in 0 W/m2
23:20 25.6 °F 18.8 °F 30.10 in NE 4 mph 4 mph 75% 0.00 in 0 W/m2
23:25 25.5 °F 18.7 °F 30.10 in ENE 4 mph 4 mph 75% 0.00 in 0 W/m2
23:30 25.3 °F 18.5 °F 30.10 in ENE 4 mph 4 mph 75% 0.00 in 0 W/m2
23:35 25.1 °F 18.3 °F 30.11 in ENE 3 mph 5 mph 75% 0.00 in 0 W/m2
23:40 25 °F 18.2 °F 30.10 in ESE 3 mph 3 mph 75% 0.00 in 0 W/m2
23:45 24.9 °F 18.1 °F 30.10 in East 3 mph 4 mph 75% 0.00 in 0 W/m2
23:50 24.8 °F 18 °F 30.10 in ENE 3 mph 3 mph 75% 0.00 in 0 W/m2
23:55 24.8 °F 18 °F 30.10 in ENE 2 mph 3 mph 75% 0.00 in 0 W/m2
Sand Point, Michigan, USA
Compliments of Weather Underground - 2 mb